This is the latest recevied weather packets stored in our database for station/object K1BWE-1. If no packets are shown the sender has not sent any weather packets the latest 10 day(s).
| Time | Temp. | Humidity | Pressure | Rain* | Wind** | Luminosity | Snow |
|---|---|---|---|---|---|---|---|
| 1777594934 | 27.22° C | 15% | 1007.2 hPa | 0 mm | - | 75 W/m² | - |
| 1777594630 | 27.22° C | 15% | 1007.3 hPa | 0 mm | - | 80 W/m² | - |
| 1777594327 | 27.22° C | 15% | 1007.3 hPa | 0 mm | - | 86 W/m² | - |
| 1777594023 | 27.78° C | 16% | 1007.2 hPa | 0 mm | - | 94 W/m² | - |
| 1777593718 | 27.78° C | 15% | 1007.3 hPa | 0 mm | - | 101 W/m² | - |
| 1777593415 | 27.78° C | 15% | 1007.4 hPa | 0 mm | - | 109 W/m² | - |
| 1777593114 | 27.78° C | 14% | 1007.5 hPa | 0 mm | - | 100 W/m² | - |
| 1777592813 | 27.78° C | 14% | 1007.2 hPa | 0 mm | - | 100 W/m² | - |
| 1777592510 | 28.33° C | 16% | 1007.4 hPa | 0 mm | - | 150 W/m² | - |
| 1777592205 | 28.33° C | 15% | 1007.6 hPa | 0 mm | - | 181 W/m² | - |
| 1777591902 | 28.33° C | 15% | 1007.3 hPa | 0 mm | - | 210 W/m² | - |
| 1777591598 | 28.33° C | 15% | 1007.5 hPa | 0 mm | - | 189 W/m² | - |
| 1777591294 | 28.33° C | 15% | 1007.4 hPa | 0 mm | - | 199 W/m² | - |
| 1777590990 | 28.33° C | 15% | 1007.7 hPa | 0 mm | - | 214 W/m² | - |
| 1777590685 | 28.33° C | 15% | 1007.4 hPa | 0 mm | - | 219 W/m² | - |
| 1777590382 | 28.89° C | 15% | 1007.7 hPa | 0 mm | - | 219 W/m² | - |
| 1777590080 | 28.89° C | 16% | 1007.7 hPa | 0 mm | - | 210 W/m² | - |
| 1777589775 | 28.89° C | 18% | 1007.5 hPa | 0 mm | - | 260 W/m² | - |
| 1777589474 | 29.44° C | 18% | 1007.7 hPa | 0 mm | - | 240 W/m² | - |
| 1777589170 | 30° C | 15% | 1007.9 hPa | 0 mm | - | 220 W/m² | - |
| 1777588866 | 29.44° C | 17% | 1008 hPa | 0 mm | - | 615 W/m² | - |
| 1777588562 | 28.89° C | 15% | 1008 hPa | 0 mm | - | 267 W/m² | - |
| 1777588257 | 29.44° C | 16% | 1008.3 hPa | 0 mm | - | 541 W/m² | - |
| 1777587952 | 30.56° C | 15% | 1008.2 hPa | 0 mm | - | 412 W/m² | - |
| 1777587644 | 30° C | 17% | 1008.4 hPa | 0 mm | - | 633 W/m² | - |
* Rain latest hour (hover to see other rain measurements)
** Current wind speed in m/s (hover to see current wind gust speed)